Lugerville, Wisconsin
Current Conditions -  °F | °C
As of 12:15 PM on Monday 22 Dec 2014 (Local Time) from KPBH Reporting Station
Haze Haze  
Wind Chill: 26°   Ceiling: 300
Heat Index: 32°   Visibility: 1.7mi
Dew Point: 32°   Wind: 7mph
Humidity: 99%   Direction: 120°ESE
Pressure: 29.73"   Gusts: NA
Location:  45.7439°N, 90.2959°W
Report Text: KPBH 221815Z AUTO 12006KT 1 3/4SM BR OVC003 00/00 A2973 RMK AO2 T00001001
Loading
Personal Weather Stations






























Interactive Weather Map New forecast layout! Learn more

10-Day Weather Forecast

Advertisements
Track Severe Weather on mobile